Fulton, Michigan
Current Conditions -  °F | °C
As of 10:53 AM on Saturday 22 Nov 2014 (Local Time) from KAZO Reporting Station
Haze Haze  
Wind Chill: 30°   Ceiling: 1200
Heat Index: 37°   Visibility: 4mi
Dew Point: 33°   Wind: 9mph
Humidity: 86%   Direction: 200°SSW
Pressure: 30.04"   Gusts: NA
Location:  42.11°N, 85.35°W
Report Text: KAZO 221553Z 20008KT 4SM BR OVC012 03/01 A3004 RMK AO2 SLP183 T00280006
Loading
Personal Weather Stations






























Interactive Weather Map New forecast layout! Learn more

10-Day Weather Forecast

Advertisements
Track Severe Weather on mobile